sensor_id;sensor_type;location;lat;lon;timestamp;P1;durP1;ratioP1;P2;durP2;ratioP2
14015;SDS011;7083;48.854;9.158;2023-12-20T00:01:10;2.20;;;2.10;;
14015;SDS011;7083;48.854;9.158;2023-12-20T00:03:36;1.67;;;1.67;;
14015;SDS011;7083;48.854;9.158;2023-12-20T00:06:03;2.03;;;1.83;;
14015;SDS011;7083;48.854;9.158;2023-12-20T00:08:30;1.97;;;1.87;;
14015;SDS011;7083;48.854;9.158;2023-12-20T00:10:57;1.90;;;1.80;;
14015;SDS011;7083;48.854;9.158;2023-12-20T00:13:24;1.87;;;1.80;;
14015;SDS011;7083;48.854;9.158;2023-12-20T00:15:50;1.80;;;1.70;;
14015;SDS011;7083;48.854;9.158;2023-12-20T00:18:17;1.50;;;1.40;;
14015;SDS011;7083;48.854;9.158;2023-12-20T00:20:43;1.67;;;1.67;;
14015;SDS011;7083;48.854;9.158;2023-12-20T00:23:10;1.53;;;1.53;;
14015;SDS011;7083;48.854;9.158;2023-12-20T00:25:37;2.40;;;1.80;;
14015;SDS011;7083;48.854;9.158;2023-12-20T00:28:05;1.90;;;1.80;;
14015;SDS011;7083;48.854;9.158;2023-12-20T00:30:32;2.20;;;2.10;;
14015;SDS011;7083;48.854;9.158;2023-12-20T00:32:59;1.80;;;1.70;;
14015;SDS011;7083;48.854;9.158;2023-12-20T00:35:25;1.70;;;1.70;;
14015;SDS011;7083;48.854;9.158;2023-12-20T00:37:52;2.00;;;1.90;;
14015;SDS011;7083;48.854;9.158;2023-12-20T00:40:19;2.10;;;2.00;;
14015;SDS011;7083;48.854;9.158;2023-12-20T00:42:45;2.00;;;1.90;;
14015;SDS011;7083;48.854;9.158;2023-12-20T00:45:14;2.20;;;2.10;;
14015;SDS011;7083;48.854;9.158;2023-12-20T00:47:41;2.27;;;2.17;;
14015;SDS011;7083;48.854;9.158;2023-12-20T00:50:08;1.93;;;1.83;;
14015;SDS011;7083;48.854;9.158;2023-12-20T00:52:35;4.70;;;2.27;;
14015;SDS011;7083;48.854;9.158;2023-12-20T00:55:02;2.20;;;2.10;;
14015;SDS011;7083;48.854;9.158;2023-12-20T00:57:29;1.97;;;1.90;;
14015;SDS011;7083;48.854;9.158;2023-12-20T00:59:56;2.30;;;2.00;;
14015;SDS011;7083;48.854;9.158;2023-12-20T01:02:24;2.30;;;2.20;;
14015;SDS011;7083;48.854;9.158;2023-12-20T01:04:51;2.70;;;2.50;;
14015;SDS011;7083;48.854;9.158;2023-12-20T01:07:17;2.47;;;2.33;;
14015;SDS011;7083;48.854;9.158;2023-12-20T01:09:44;2.20;;;2.10;;
14015;SDS011;7083;48.854;9.158;2023-12-20T01:12:11;4.13;;;2.30;;
14015;SDS011;7083;48.854;9.158;2023-12-20T01:14:37;2.53;;;2.40;;
14015;SDS011;7083;48.854;9.158;2023-12-20T01:17:05;2.67;;;2.57;;
14015;SDS011;7083;48.854;9.158;2023-12-20T01:19:33;2.77;;;2.43;;
14015;SDS011;7083;48.854;9.158;2023-12-20T01:21:59;2.93;;;2.73;;
14015;SDS011;7083;48.854;9.158;2023-12-20T01:24:26;2.40;;;2.27;;
14015;SDS011;7083;48.854;9.158;2023-12-20T01:26:53;2.87;;;2.67;;
14015;SDS011;7083;48.854;9.158;2023-12-20T01:29:19;2.40;;;2.20;;
14015;SDS011;7083;48.854;9.158;2023-12-20T01:31:46;3.43;;;3.23;;
14015;SDS011;7083;48.854;9.158;2023-12-20T01:34:13;3.40;;;3.20;;
14015;SDS011;7083;48.854;9.158;2023-12-20T01:36:41;3.10;;;2.80;;
14015;SDS011;7083;48.854;9.158;2023-12-20T01:39:09;3.13;;;2.93;;
14015;SDS011;7083;48.854;9.158;2023-12-20T01:41:36;3.87;;;3.07;;
14015;SDS011;7083;48.854;9.158;2023-12-20T01:44:03;2.70;;;2.60;;
14015;SDS011;7083;48.854;9.158;2023-12-20T01:46:30;3.10;;;2.90;;
14015;SDS011;7083;48.854;9.158;2023-12-20T01:48:56;2.50;;;2.40;;
14015;SDS011;7083;48.854;9.158;2023-12-20T01:51:24;3.10;;;2.80;;
14015;SDS011;7083;48.854;9.158;2023-12-20T01:53:53;3.10;;;2.90;;
14015;SDS011;7083;48.854;9.158;2023-12-20T01:56:21;3.47;;;2.90;;
14015;SDS011;7083;48.854;9.158;2023-12-20T01:58:48;2.90;;;2.80;;
14015;SDS011;7083;48.854;9.158;2023-12-20T02:01:15;2.30;;;2.20;;
14015;SDS011;7083;48.854;9.158;2023-12-20T02:03:42;2.93;;;2.80;;
14015;SDS011;7083;48.854;9.158;2023-12-20T02:06:09;3.30;;;3.10;;
14015;SDS011;7083;48.854;9.158;2023-12-20T02:08:36;3.33;;;2.97;;
14015;SDS011;7083;48.854;9.158;2023-12-20T02:11:04;2.80;;;2.67;;
14015;SDS011;7083;48.854;9.158;2023-12-20T02:13:30;3.13;;;2.93;;
14015;SDS011;7083;48.854;9.158;2023-12-20T02:15:57;3.43;;;3.23;;
14015;SDS011;7083;48.854;9.158;2023-12-20T02:18:24;3.03;;;2.83;;
14015;SDS011;7083;48.854;9.158;2023-12-20T02:20:51;3.00;;;2.80;;
14015;SDS011;7083;48.854;9.158;2023-12-20T02:23:19;3.23;;;3.03;;
14015;SDS011;7083;48.854;9.158;2023-12-20T02:25:46;2.70;;;2.60;;
14015;SDS011;7083;48.854;9.158;2023-12-20T02:28:13;3.23;;;2.93;;
14015;SDS011;7083;48.854;9.158;2023-12-20T02:30:40;3.42;;;3.22;;
14015;SDS011;7083;48.854;9.158;2023-12-20T02:33:07;2.57;;;2.47;;
14015;SDS011;7083;48.854;9.158;2023-12-20T02:35:36;3.00;;;2.80;;
14015;SDS011;7083;48.854;9.158;2023-12-20T02:38:03;2.60;;;2.40;;
14015;SDS011;7083;48.854;9.158;2023-12-20T02:40:31;2.10;;;2.00;;
14015;SDS011;7083;48.854;9.158;2023-12-20T02:42:58;3.03;;;2.30;;
14015;SDS011;7083;48.854;9.158;2023-12-20T02:45:24;2.40;;;2.30;;
14015;SDS011;7083;48.854;9.158;2023-12-20T02:47:52;1.83;;;1.73;;
14015;SDS011;7083;48.854;9.158;2023-12-20T02:50:19;1.63;;;1.60;;
14015;SDS011;7083;48.854;9.158;2023-12-20T02:52:45;1.23;;;1.23;;
14015;SDS011;7083;48.854;9.158;2023-12-20T02:55:12;0.90;;;0.90;;
14015;SDS011;7083;48.854;9.158;2023-12-20T02:57:40;0.70;;;0.70;;
14015;SDS011;7083;48.854;9.158;2023-12-20T03:00:07;0.70;;;0.70;;
14015;SDS011;7083;48.854;9.158;2023-12-20T03:02:35;0.87;;;0.87;;
14015;SDS011;7083;48.854;9.158;2023-12-20T03:05:02;0.77;;;0.77;;
14015;SDS011;7083;48.854;9.158;2023-12-20T03:07:29;0.80;;;0.80;;
14015;SDS011;7083;48.854;9.158;2023-12-20T03:09:55;0.73;;;0.73;;
14015;SDS011;7083;48.854;9.158;2023-12-20T03:12:22;1.33;;;1.00;;
14015;SDS011;7083;48.854;9.158;2023-12-20T03:14:50;0.80;;;0.80;;
14015;SDS011;7083;48.854;9.158;2023-12-20T03:17:17;0.80;;;0.80;;
14015;SDS011;7083;48.854;9.158;2023-12-20T03:19:47;0.77;;;0.77;;
14015;SDS011;7083;48.854;9.158;2023-12-20T03:22:13;0.70;;;0.70;;
14015;SDS011;7083;48.854;9.158;2023-12-20T03:24:40;0.80;;;0.80;;
14015;SDS011;7083;48.854;9.158;2023-12-20T03:27:10;0.90;;;0.90;;
14015;SDS011;7083;48.854;9.158;2023-12-20T03:29:36;0.70;;;0.70;;
14015;SDS011;7083;48.854;9.158;2023-12-20T03:32:05;0.80;;;0.80;;
14015;SDS011;7083;48.854;9.158;2023-12-20T03:34:33;0.70;;;0.70;;
14015;SDS011;7083;48.854;9.158;2023-12-20T03:37:00;0.73;;;0.73;;
14015;SDS011;7083;48.854;9.158;2023-12-20T03:39:26;0.83;;;0.83;;
14015;SDS011;7083;48.854;9.158;2023-12-20T03:41:53;0.80;;;0.80;;
14015;SDS011;7083;48.854;9.158;2023-12-20T03:44:20;0.70;;;0.70;;
14015;SDS011;7083;48.854;9.158;2023-12-20T03:46:46;0.90;;;0.90;;
14015;SDS011;7083;48.854;9.158;2023-12-20T03:49:15;0.80;;;0.80;;
14015;SDS011;7083;48.854;9.158;2023-12-20T03:51:42;0.83;;;0.83;;
14015;SDS011;7083;48.854;9.158;2023-12-20T03:54:08;0.80;;;0.80;;
14015;SDS011;7083;48.854;9.158;2023-12-20T03:56:35;0.80;;;0.80;;
14015;SDS011;7083;48.854;9.158;2023-12-20T03:59:02;0.80;;;0.80;;
14015;SDS011;7083;48.854;9.158;2023-12-20T04:01:28;0.80;;;0.80;;
14015;SDS011;7083;48.854;9.158;2023-12-20T04:03:55;0.90;;;0.90;;
14015;SDS011;7083;48.854;9.158;2023-12-20T04:06:23;0.70;;;0.70;;
14015;SDS011;7083;48.854;9.158;2023-12-20T04:08:50;1.00;;;1.00;;
14015;SDS011;7083;48.854;9.158;2023-12-20T04:11:17;0.90;;;0.90;;
14015;SDS011;7083;48.854;9.158;2023-12-20T04:13:43;1.00;;;1.00;;
14015;SDS011;7083;48.854;9.158;2023-12-20T04:16:10;1.00;;;1.00;;
14015;SDS011;7083;48.854;9.158;2023-12-20T04:18:37;1.73;;;1.07;;
14015;SDS011;7083;48.854;9.158;2023-12-20T04:21:04;1.23;;;1.03;;
14015;SDS011;7083;48.854;9.158;2023-12-20T04:23:32;1.03;;;0.90;;
14015;SDS011;7083;48.854;9.158;2023-12-20T04:25:58;1.00;;;1.00;;
14015;SDS011;7083;48.854;9.158;2023-12-20T04:28:25;1.20;;;1.20;;
14015;SDS011;7083;48.854;9.158;2023-12-20T04:30:52;0.90;;;0.90;;
14015;SDS011;7083;48.854;9.158;2023-12-20T04:33:18;1.90;;;1.00;;
14015;SDS011;7083;48.854;9.158;2023-12-20T04:35:45;1.00;;;0.90;;
14015;SDS011;7083;48.854;9.158;2023-12-20T04:38:12;0.80;;;0.80;;
14015;SDS011;7083;48.854;9.158;2023-12-20T04:40:40;0.80;;;0.80;;
14015;SDS011;7083;48.854;9.158;2023-12-20T04:43:06;0.87;;;0.87;;
14015;SDS011;7083;48.854;9.158;2023-12-20T04:45:33;1.10;;;1.10;;
14015;SDS011;7083;48.854;9.158;2023-12-20T04:48:00;0.97;;;0.97;;
14015;SDS011;7083;48.854;9.158;2023-12-20T04:50:27;1.00;;;1.00;;
14015;SDS011;7083;48.854;9.158;2023-12-20T04:52:54;0.93;;;0.93;;
14015;SDS011;7083;48.854;9.158;2023-12-20T04:55:21;0.97;;;0.97;;
14015;SDS011;7083;48.854;9.158;2023-12-20T04:57:49;0.90;;;0.90;;
14015;SDS011;7083;48.854;9.158;2023-12-20T05:00:16;3.40;;;1.00;;
14015;SDS011;7083;48.854;9.158;2023-12-20T05:02:43;1.80;;;1.00;;
14015;SDS011;7083;48.854;9.158;2023-12-20T05:05:09;1.00;;;1.00;;
14015;SDS011;7083;48.854;9.158;2023-12-20T05:07:36;1.20;;;1.20;;
14015;SDS011;7083;48.854;9.158;2023-12-20T05:10:03;1.20;;;1.20;;
14015;SDS011;7083;48.854;9.158;2023-12-20T05:12:30;2.10;;;1.10;;
14015;SDS011;7083;48.854;9.158;2023-12-20T05:14:58;1.17;;;1.17;;
14015;SDS011;7083;48.854;9.158;2023-12-20T05:17:25;1.10;;;1.10;;
14015;SDS011;7083;48.854;9.158;2023-12-20T05:19:52;1.00;;;1.00;;
14015;SDS011;7083;48.854;9.158;2023-12-20T05:22:18;1.00;;;1.00;;
14015;SDS011;7083;48.854;9.158;2023-12-20T05:24:45;0.90;;;0.90;;
14015;SDS011;7083;48.854;9.158;2023-12-20T05:27:12;1.57;;;1.10;;
14015;SDS011;7083;48.854;9.158;2023-12-20T05:29:39;1.30;;;1.30;;
14015;SDS011;7083;48.854;9.158;2023-12-20T05:32:07;1.30;;;1.30;;
14015;SDS011;7083;48.854;9.158;2023-12-20T05:34:33;1.40;;;1.30;;
14015;SDS011;7083;48.854;9.158;2023-12-20T05:37:00;1.30;;;1.20;;
14015;SDS011;7083;48.854;9.158;2023-12-20T05:39:27;1.50;;;1.47;;
14015;SDS011;7083;48.854;9.158;2023-12-20T05:41:55;1.67;;;1.63;;
14015;SDS011;7083;48.854;9.158;2023-12-20T05:44:22;1.40;;;1.40;;
14015;SDS011;7083;48.854;9.158;2023-12-20T05:46:49;1.60;;;1.60;;
14015;SDS011;7083;48.854;9.158;2023-12-20T05:49:17;1.60;;;1.50;;
14015;SDS011;7083;48.854;9.158;2023-12-20T05:51:44;1.70;;;1.60;;
14015;SDS011;7083;48.854;9.158;2023-12-20T05:54:10;2.00;;;1.90;;
14015;SDS011;7083;48.854;9.158;2023-12-20T05:56:37;1.50;;;1.50;;
14015;SDS011;7083;48.854;9.158;2023-12-20T05:59:04;1.90;;;1.80;;
14015;SDS011;7083;48.854;9.158;2023-12-20T06:01:30;1.93;;;1.83;;
14015;SDS011;7083;48.854;9.158;2023-12-20T06:03:57;1.53;;;1.53;;
14015;SDS011;7083;48.854;9.158;2023-12-20T06:06:25;1.77;;;1.70;;
14015;SDS011;7083;48.854;9.158;2023-12-20T06:08:52;1.80;;;1.70;;
14015;SDS011;7083;48.854;9.158;2023-12-20T06:11:18;2.27;;;1.67;;
14015;SDS011;7083;48.854;9.158;2023-12-20T06:13:45;1.60;;;1.47;;
14015;SDS011;7083;48.854;9.158;2023-12-20T06:16:12;1.60;;;1.60;;
14015;SDS011;7083;48.854;9.158;2023-12-20T06:18:38;1.50;;;1.50;;
14015;SDS011;7083;48.854;9.158;2023-12-20T06:21:06;1.90;;;1.80;;
14015;SDS011;7083;48.854;9.158;2023-12-20T06:23:34;4.87;;;2.00;;
14015;SDS011;7083;48.854;9.158;2023-12-20T06:26:01;1.60;;;1.60;;
14015;SDS011;7083;48.854;9.158;2023-12-20T06:28:28;2.07;;;1.97;;
14015;SDS011;7083;48.854;9.158;2023-12-20T06:30:54;2.30;;;1.90;;
14015;SDS011;7083;48.854;9.158;2023-12-20T06:33:22;1.57;;;1.53;;
14015;SDS011;7083;48.854;9.158;2023-12-20T06:35:49;1.83;;;1.73;;
14015;SDS011;7083;48.854;9.158;2023-12-20T06:38:18;2.50;;;1.90;;
14015;SDS011;7083;48.854;9.158;2023-12-20T06:40:46;1.90;;;1.90;;
14015;SDS011;7083;48.854;9.158;2023-12-20T06:43:13;2.00;;;1.90;;
14015;SDS011;7083;48.854;9.158;2023-12-20T06:45:40;2.20;;;2.10;;
14015;SDS011;7083;48.854;9.158;2023-12-20T06:48:07;2.00;;;1.90;;
14015;SDS011;7083;48.854;9.158;2023-12-20T06:50:34;2.87;;;2.67;;
14015;SDS011;7083;48.854;9.158;2023-12-20T06:53:04;2.27;;;2.17;;
14015;SDS011;7083;48.854;9.158;2023-12-20T06:55:32;3.37;;;3.00;;
14015;SDS011;7083;48.854;9.158;2023-12-20T06:58:00;2.80;;;2.70;;
14015;SDS011;7083;48.854;9.158;2023-12-20T07:00:27;3.53;;;3.33;;
14015;SDS011;7083;48.854;9.158;2023-12-20T07:02:53;4.07;;;3.77;;
14015;SDS011;7083;48.854;9.158;2023-12-20T07:05:21;4.40;;;4.10;;
14015;SDS011;7083;48.854;9.158;2023-12-20T07:07:47;4.77;;;4.47;;
14015;SDS011;7083;48.854;9.158;2023-12-20T07:10:14;4.90;;;4.60;;
14015;SDS011;7083;48.854;9.158;2023-12-20T07:12:41;5.47;;;5.07;;
14015;SDS011;7083;48.854;9.158;2023-12-20T07:15:09;6.90;;;6.40;;
14015;SDS011;7083;48.854;9.158;2023-12-20T07:17:37;5.07;;;4.70;;
14015;SDS011;7083;48.854;9.158;2023-12-20T07:20:04;5.77;;;5.37;;
14015;SDS011;7083;48.854;9.158;2023-12-20T07:22:34;5.10;;;4.80;;
14015;SDS011;7083;48.854;9.158;2023-12-20T07:25:01;5.20;;;4.90;;
14015;SDS011;7083;48.854;9.158;2023-12-20T07:27:28;4.93;;;4.60;;
14015;SDS011;7083;48.854;9.158;2023-12-20T07:29:55;4.87;;;4.50;;
14015;SDS011;7083;48.854;9.158;2023-12-20T07:32:23;5.00;;;4.60;;
14015;SDS011;7083;48.854;9.158;2023-12-20T07:34:50;4.33;;;4.13;;
14015;SDS011;7083;48.854;9.158;2023-12-20T07:37:16;5.45;;;5.15;;
14015;SDS011;7083;48.854;9.158;2023-12-20T07:39:43;5.40;;;4.90;;
14015;SDS011;7083;48.854;9.158;2023-12-20T07:42:10;4.67;;;4.40;;
14015;SDS011;7083;48.854;9.158;2023-12-20T07:44:36;6.27;;;5.03;;
14015;SDS011;7083;48.854;9.158;2023-12-20T07:47:03;5.73;;;5.03;;
14015;SDS011;7083;48.854;9.158;2023-12-20T07:49:32;4.60;;;4.40;;
14015;SDS011;7083;48.854;9.158;2023-12-20T07:51:58;5.80;;;5.30;;
14015;SDS011;7083;48.854;9.158;2023-12-20T07:54:25;4.63;;;4.43;;
14015;SDS011;7083;48.854;9.158;2023-12-20T07:56:52;5.07;;;4.60;;
14015;SDS011;7083;48.854;9.158;2023-12-20T07:59:19;4.73;;;4.43;;
14015;SDS011;7083;48.854;9.158;2023-12-20T08:01:45;5.13;;;4.83;;
14015;SDS011;7083;48.854;9.158;2023-12-20T08:04:12;4.60;;;4.30;;
14015;SDS011;7083;48.854;9.158;2023-12-20T08:06:40;6.37;;;5.87;;
14015;SDS011;7083;48.854;9.158;2023-12-20T08:09:06;5.33;;;5.03;;
14015;SDS011;7083;48.854;9.158;2023-12-20T08:11:33;5.40;;;5.00;;
14015;SDS011;7083;48.854;9.158;2023-12-20T08:14:00;5.33;;;5.03;;
14015;SDS011;7083;48.854;9.158;2023-12-20T08:16:26;4.90;;;4.60;;
14015;SDS011;7083;48.854;9.158;2023-12-20T08:18:53;5.80;;;5.17;;
14015;SDS011;7083;48.854;9.158;2023-12-20T08:21:20;12.47;;;5.83;;
14015;SDS011;7083;48.854;9.158;2023-12-20T08:23:49;5.60;;;5.20;;
14015;SDS011;7083;48.854;9.158;2023-12-20T08:26:18;5.67;;;5.27;;
14015;SDS011;7083;48.854;9.158;2023-12-20T08:28:46;5.87;;;5.47;;
14015;SDS011;7083;48.854;9.158;2023-12-20T08:31:13;7.77;;;5.87;;
14015;SDS011;7083;48.854;9.158;2023-12-20T08:33:40;5.53;;;5.13;;
14015;SDS011;7083;48.854;9.158;2023-12-20T08:36:07;6.13;;;5.33;;
14015;SDS011;7083;48.854;9.158;2023-12-20T08:38:33;9.17;;;5.87;;
14015;SDS011;7083;48.854;9.158;2023-12-20T08:41:01;6.73;;;6.13;;
14015;SDS011;7083;48.854;9.158;2023-12-20T08:43:30;4.80;;;4.50;;
14015;SDS011;7083;48.854;9.158;2023-12-20T08:45:57;6.30;;;5.80;;
14015;SDS011;7083;48.854;9.158;2023-12-20T08:48:23;7.43;;;6.10;;
14015;SDS011;7083;48.854;9.158;2023-12-20T08:50:50;7.75;;;7.20;;
14015;SDS011;7083;48.854;9.158;2023-12-20T08:53:17;6.80;;;6.30;;
14015;SDS011;7083;48.854;9.158;2023-12-20T08:55:44;6.83;;;6.33;;
14015;SDS011;7083;48.854;9.158;2023-12-20T08:58:13;6.53;;;6.03;;
14015;SDS011;7083;48.854;9.158;2023-12-20T09:00:39;7.10;;;5.77;;
14015;SDS011;7083;48.854;9.158;2023-12-20T09:03:06;6.30;;;5.77;;
14015;SDS011;7083;48.854;9.158;2023-12-20T09:05:33;6.23;;;5.67;;
14015;SDS011;7083;48.854;9.158;2023-12-20T09:08:00;5.13;;;4.73;;
14015;SDS011;7083;48.854;9.158;2023-12-20T09:10:26;6.20;;;5.45;;
14015;SDS011;7083;48.854;9.158;2023-12-20T09:12:53;5.10;;;4.70;;
14015;SDS011;7083;48.854;9.158;2023-12-20T09:15:23;5.27;;;4.97;;
14015;SDS011;7083;48.854;9.158;2023-12-20T09:17:50;5.43;;;4.97;;
14015;SDS011;7083;48.854;9.158;2023-12-20T09:20:16;4.97;;;4.60;;
14015;SDS011;7083;48.854;9.158;2023-12-20T09:22:43;5.20;;;4.80;;
14015;SDS011;7083;48.854;9.158;2023-12-20T09:25:10;5.37;;;4.87;;
14015;SDS011;7083;48.854;9.158;2023-12-20T09:27:37;6.13;;;5.57;;
14015;SDS011;7083;48.854;9.158;2023-12-20T09:30:04;7.13;;;4.77;;
14015;SDS011;7083;48.854;9.158;2023-12-20T09:32:33;5.17;;;4.63;;
14015;SDS011;7083;48.854;9.158;2023-12-20T09:35:00;11.73;;;4.67;;
14015;SDS011;7083;48.854;9.158;2023-12-20T09:37:27;5.03;;;4.17;;
14015;SDS011;7083;48.854;9.158;2023-12-20T09:39:54;5.03;;;4.63;;
14015;SDS011;7083;48.854;9.158;2023-12-20T09:42:21;3.67;;;3.40;;
14015;SDS011;7083;48.854;9.158;2023-12-20T09:44:55;4.50;;;3.37;;
14015;SDS011;7083;48.854;9.158;2023-12-20T09:47:28;3.73;;;3.43;;
14015;SDS011;7083;48.854;9.158;2023-12-20T09:49:56;5.07;;;3.27;;
14015;SDS011;7083;48.854;9.158;2023-12-20T09:52:23;3.40;;;3.20;;
14015;SDS011;7083;48.854;9.158;2023-12-20T09:54:51;7.37;;;3.23;;
14015;SDS011;7083;48.854;9.158;2023-12-20T09:57:20;6.97;;;2.93;;
14015;SDS011;7083;48.854;9.158;2023-12-20T09:59:46;4.40;;;2.90;;
14015;SDS011;7083;48.854;9.158;2023-12-20T10:02:13;3.37;;;2.77;;
14015;SDS011;7083;48.854;9.158;2023-12-20T10:04:41;5.37;;;2.60;;
14015;SDS011;7083;48.854;9.158;2023-12-20T10:07:13;6.97;;;3.47;;
14015;SDS011;7083;48.854;9.158;2023-12-20T10:09:40;4.50;;;2.97;;
14015;SDS011;7083;48.854;9.158;2023-12-20T10:12:07;6.10;;;2.70;;
14015;SDS011;7083;48.854;9.158;2023-12-20T10:14:34;9.60;;;2.80;;
14015;SDS011;7083;48.854;9.158;2023-12-20T10:17:01;3.17;;;2.87;;
14015;SDS011;7083;48.854;9.158;2023-12-20T10:19:29;7.53;;;2.70;;
14015;SDS011;7083;48.854;9.158;2023-12-20T10:21:57;3.00;;;2.80;;
14015;SDS011;7083;48.854;9.158;2023-12-20T10:24:27;4.40;;;2.77;;
14015;SDS011;7083;48.854;9.158;2023-12-20T10:27:01;6.37;;;3.10;;
14015;SDS011;7083;48.854;9.158;2023-12-20T10:29:31;8.40;;;3.07;;
14015;SDS011;7083;48.854;9.158;2023-12-20T10:31:59;4.57;;;2.80;;
14015;SDS011;7083;48.854;9.158;2023-12-20T10:34:26;3.70;;;2.20;;
14015;SDS011;7083;48.854;9.158;2023-12-20T10:36:52;13.53;;;2.80;;
14015;SDS011;7083;48.854;9.158;2023-12-20T10:39:19;2.70;;;2.50;;
14015;SDS011;7083;48.854;9.158;2023-12-20T10:41:48;2.77;;;2.30;;
14015;SDS011;7083;48.854;9.158;2023-12-20T10:44:15;3.97;;;3.67;;
14015;SDS011;7083;48.854;9.158;2023-12-20T10:46:42;6.97;;;4.35;;
14015;SDS011;7083;48.854;9.158;2023-12-20T10:49:16;5.73;;;3.73;;
14015;SDS011;7083;48.854;9.158;2023-12-20T10:51:44;4.07;;;2.90;;
14015;SDS011;7083;48.854;9.158;2023-12-20T10:54:13;3.87;;;2.80;;
14015;SDS011;7083;48.854;9.158;2023-12-20T10:56:40;5.10;;;2.50;;
14015;SDS011;7083;48.854;9.158;2023-12-20T10:59:08;2.47;;;2.10;;
14015;SDS011;7083;48.854;9.158;2023-12-20T11:01:37;2.33;;;2.10;;
14015;SDS011;7083;48.854;9.158;2023-12-20T11:04:06;8.07;;;3.17;;
14015;SDS011;7083;48.854;9.158;2023-12-20T11:06:39;3.87;;;2.97;;
14015;SDS011;7083;48.854;9.158;2023-12-20T11:09:13;5.57;;;2.40;;
14015;SDS011;7083;48.854;9.158;2023-12-20T11:11:52;3.17;;;2.30;;
14015;SDS011;7083;48.854;9.158;2023-12-20T11:14:27;6.43;;;2.10;;
14015;SDS011;7083;48.854;9.158;2023-12-20T11:17:07;7.93;;;2.47;;
14015;SDS011;7083;48.854;9.158;2023-12-20T11:19:35;4.37;;;2.23;;
14015;SDS011;7083;48.854;9.158;2023-12-20T11:22:03;4.97;;;2.90;;
14015;SDS011;7083;48.854;9.158;2023-12-20T11:24:31;7.40;;;2.73;;
14015;SDS011;7083;48.854;9.158;2023-12-20T11:26:59;3.40;;;2.43;;
14015;SDS011;7083;48.854;9.158;2023-12-20T11:29:32;2.73;;;2.53;;
14015;SDS011;7083;48.854;9.158;2023-12-20T11:32:00;3.30;;;2.63;;
14015;SDS011;7083;48.854;9.158;2023-12-20T11:34:27;5.50;;;2.40;;
14015;SDS011;7083;48.854;9.158;2023-12-20T11:36:57;10.17;;;2.57;;
14015;SDS011;7083;48.854;9.158;2023-12-20T11:39:25;7.17;;;2.43;;
14015;SDS011;7083;48.854;9.158;2023-12-20T11:41:53;6.87;;;2.90;;
14015;SDS011;7083;48.854;9.158;2023-12-20T11:44:21;7.37;;;2.57;;
14015;SDS011;7083;48.854;9.158;2023-12-20T11:46:49;6.97;;;2.70;;
14015;SDS011;7083;48.854;9.158;2023-12-20T11:49:16;5.80;;;2.80;;
14015;SDS011;7083;48.854;9.158;2023-12-20T11:51:42;5.27;;;2.50;;
14015;SDS011;7083;48.854;9.158;2023-12-20T11:54:10;5.77;;;2.50;;
14015;SDS011;7083;48.854;9.158;2023-12-20T11:56:37;4.77;;;2.70;;
14015;SDS011;7083;48.854;9.158;2023-12-20T11:59:03;4.87;;;2.43;;
14015;SDS011;7083;48.854;9.158;2023-12-20T12:01:31;4.37;;;2.57;;
14015;SDS011;7083;48.854;9.158;2023-12-20T12:04:05;5.47;;;2.30;;
14015;SDS011;7083;48.854;9.158;2023-12-20T12:06:32;7.50;;;2.67;;
14015;SDS011;7083;48.854;9.158;2023-12-20T12:08:59;8.33;;;2.80;;
14015;SDS011;7083;48.854;9.158;2023-12-20T12:11:26;3.77;;;2.73;;
14015;SDS011;7083;48.854;9.158;2023-12-20T12:13:52;5.43;;;3.60;;
14015;SDS011;7083;48.854;9.158;2023-12-20T12:16:19;3.27;;;3.03;;
14015;SDS011;7083;48.854;9.158;2023-12-20T12:18:54;5.20;;;2.63;;
14015;SDS011;7083;48.854;9.158;2023-12-20T12:21:23;2.63;;;2.40;;
14015;SDS011;7083;48.854;9.158;2023-12-20T12:23:50;6.93;;;2.77;;
14015;SDS011;7083;48.854;9.158;2023-12-20T12:26:16;3.27;;;2.40;;
14015;SDS011;7083;48.854;9.158;2023-12-20T12:28:43;11.17;;;2.20;;
14015;SDS011;7083;48.854;9.158;2023-12-20T12:31:13;6.37;;;2.50;;
14015;SDS011;7083;48.854;9.158;2023-12-20T12:33:41;3.87;;;2.17;;
14015;SDS011;7083;48.854;9.158;2023-12-20T12:36:10;5.23;;;2.40;;
14015;SDS011;7083;48.854;9.158;2023-12-20T12:38:38;3.37;;;2.20;;
14015;SDS011;7083;48.854;9.158;2023-12-20T12:41:05;6.90;;;2.97;;
14015;SDS011;7083;48.854;9.158;2023-12-20T12:43:32;4.03;;;2.37;;
14015;SDS011;7083;48.854;9.158;2023-12-20T12:45:59;3.00;;;2.07;;
14015;SDS011;7083;48.854;9.158;2023-12-20T12:48:26;4.40;;;2.30;;
14015;SDS011;7083;48.854;9.158;2023-12-20T12:50:54;4.47;;;2.63;;
14015;SDS011;7083;48.854;9.158;2023-12-20T12:53:24;6.13;;;2.50;;
14015;SDS011;7083;48.854;9.158;2023-12-20T12:55:53;7.07;;;2.50;;
14015;SDS011;7083;48.854;9.158;2023-12-20T12:58:20;6.10;;;3.57;;
14015;SDS011;7083;48.854;9.158;2023-12-20T13:00:47;5.37;;;2.63;;
14015;SDS011;7083;48.854;9.158;2023-12-20T13:03:14;3.37;;;3.10;;
14015;SDS011;7083;48.854;9.158;2023-12-20T13:05:42;5.03;;;2.57;;
14015;SDS011;7083;48.854;9.158;2023-12-20T13:08:09;4.63;;;2.00;;
14015;SDS011;7083;48.854;9.158;2023-12-20T13:10:37;6.27;;;2.40;;
14015;SDS011;7083;48.854;9.158;2023-12-20T13:13:05;2.20;;;1.90;;
14015;SDS011;7083;48.854;9.158;2023-12-20T13:15:32;5.50;;;2.20;;
14015;SDS011;7083;48.854;9.158;2023-12-20T13:17:59;1.93;;;1.70;;
14015;SDS011;7083;48.854;9.158;2023-12-20T13:20:26;2.87;;;1.80;;
14015;SDS011;7083;48.854;9.158;2023-12-20T13:22:52;3.80;;;2.03;;
14015;SDS011;7083;48.854;9.158;2023-12-20T13:25:19;4.87;;;2.00;;
14015;SDS011;7083;48.854;9.158;2023-12-20T13:27:46;3.07;;;1.90;;
14015;SDS011;7083;48.854;9.158;2023-12-20T13:30:15;7.43;;;2.50;;
14015;SDS011;7083;48.854;9.158;2023-12-20T13:32:43;5.40;;;1.83;;
14015;SDS011;7083;48.854;9.158;2023-12-20T13:35:10;4.00;;;2.00;;
14015;SDS011;7083;48.854;9.158;2023-12-20T13:37:37;2.87;;;1.80;;
14015;SDS011;7083;48.854;9.158;2023-12-20T13:40:05;3.13;;;1.43;;
14015;SDS011;7083;48.854;9.158;2023-12-20T13:42:33;3.97;;;2.10;;
14015;SDS011;7083;48.854;9.158;2023-12-20T13:44:59;3.67;;;2.00;;
14015;SDS011;7083;48.854;9.158;2023-12-20T13:47:28;3.60;;;2.13;;
14015;SDS011;7083;48.854;9.158;2023-12-20T13:49:54;2.67;;;1.87;;
14015;SDS011;7083;48.854;9.158;2023-12-20T13:52:21;7.90;;;1.93;;
14015;SDS011;7083;48.854;9.158;2023-12-20T13:54:48;3.23;;;2.10;;
14015;SDS011;7083;48.854;9.158;2023-12-20T13:57:14;5.77;;;2.00;;
14015;SDS011;7083;48.854;9.158;2023-12-20T13:59:41;4.13;;;2.00;;
14015;SDS011;7083;48.854;9.158;2023-12-20T14:02:08;3.43;;;2.40;;
14015;SDS011;7083;48.854;9.158;2023-12-20T14:04:36;4.50;;;1.83;;
14015;SDS011;7083;48.854;9.158;2023-12-20T14:07:04;5.43;;;2.13;;
14015;SDS011;7083;48.854;9.158;2023-12-20T14:09:32;2.37;;;2.07;;
14015;SDS011;7083;48.854;9.158;2023-12-20T14:11:59;4.00;;;2.37;;
14015;SDS011;7083;48.854;9.158;2023-12-20T14:14:26;5.83;;;2.43;;
14015;SDS011;7083;48.854;9.158;2023-12-20T14:16:52;4.70;;;2.00;;
14015;SDS011;7083;48.854;9.158;2023-12-20T14:19:19;2.37;;;2.17;;
14015;SDS011;7083;48.854;9.158;2023-12-20T14:21:47;3.90;;;2.30;;
14015;SDS011;7083;48.854;9.158;2023-12-20T14:24:14;5.63;;;2.10;;
14015;SDS011;7083;48.854;9.158;2023-12-20T14:26:41;2.67;;;2.00;;
14015;SDS011;7083;48.854;9.158;2023-12-20T14:29:17;4.20;;;2.53;;
14015;SDS011;7083;48.854;9.158;2023-12-20T14:31:44;6.60;;;2.40;;
14015;SDS011;7083;48.854;9.158;2023-12-20T14:34:11;2.63;;;2.20;;
14015;SDS011;7083;48.854;9.158;2023-12-20T14:36:37;4.60;;;2.57;;
14015;SDS011;7083;48.854;9.158;2023-12-20T14:39:06;4.77;;;2.43;;
14015;SDS011;7083;48.854;9.158;2023-12-20T14:41:33;12.83;;;4.80;;
14015;SDS011;7083;48.854;9.158;2023-12-20T14:44:00;4.07;;;2.40;;
14015;SDS011;7083;48.854;9.158;2023-12-20T14:46:29;4.83;;;2.20;;
14015;SDS011;7083;48.854;9.158;2023-12-20T14:48:56;3.83;;;2.30;;
14015;SDS011;7083;48.854;9.158;2023-12-20T14:51:23;5.10;;;2.30;;
14015;SDS011;7083;48.854;9.158;2023-12-20T14:53:50;5.07;;;2.53;;
14015;SDS011;7083;48.854;9.158;2023-12-20T14:56:27;9.80;;;2.87;;
14015;SDS011;7083;48.854;9.158;2023-12-20T14:58:56;2.27;;;1.90;;
14015;SDS011;7083;48.854;9.158;2023-12-20T15:01:23;3.90;;;2.17;;